KJFK/JFK METAR and TAF weather

Enter ICAO airport designator
Station Type Date Time Source
KJFK METAR 2019/10/18 10:51 UTC NOAA

KJFK 181051Z 28007KT 10SM FEW036 FEW130 10/04 A2976 RMK AO2 SLP078 T01000044


Station Type Date Time Source
KJFK Decoded METAR 2019/10/18 10:51 UTC NOAA

KENNEDY INTERNATIONAL AIRPORT , NY, United States (KJFK) 40-38N 073-46W 9M
Oct 18, 2019 - 06:51 AM EDT / 2019.10.18 1051 UTC
Wind: from the W (280 degrees) at 8 MPH (7 KT):0
Visibility: 10 mile(s):0
Sky conditions: mostly clear
Temperature: 50.0 F (10.0 C)
Dew Point: 39.9 F (4.4 C)
Relative Humidity: 68%
Pressure (altimeter): 29.76 in. Hg (1007 hPa)
ob: KJFK 181051Z 28007KT 10SM FEW036 FEW130 10/04 A2976 RMK AO2 SLP078 T01000044
cycle: 11

Station Type Date Time Source
KJFK TAF 2019/10/18 09:33 UTC NOAA

TAF
AMD KJFK 180830Z 1809/1912 30016G22KT P6SM BKN040
FM181500 31018G25KT P6SM BKN050
FM190000 32012KT P6SM SCT050
FM190900 33008KT P6SM SCT250

Example: see airport list